Time;durP1;ratioP1;P1;durP2;ratioP2;P2;SDS_P1;SDS_P2;PMS_P1;PMS_P2;Temp;Humidity;BMP_temperature;BMP_pressure;BME280_temperature;BME280_humidity;BME280_pressure;Samples;Min_cycle;Max_cycle;Signal;HPM_P1;HPM_P2
2021/08/17 00:01:52;;;;;;;;;;;12.70;99.90;;;;;;5057044;28;20294;-80
2021/08/17 00:04:17;;;;;;;;;;;12.60;99.90;;;;;;5057665;28;20281;-80
2021/08/17 00:06:43;;;;;;;;;;;12.50;99.90;;;;;;5058014;28;20429;-80
2021/08/17 00:09:08;;;;;;;;;;;12.50;99.90;;;;;;5056856;28;19909;-82
2021/08/17 00:11:34;;;;;;;;;;;12.50;99.90;;;;;;5057492;28;19932;-82
2021/08/17 00:13:59;;;;;;;;;;;12.50;99.90;;;;;;5057117;28;20251;-82
2021/08/17 00:16:25;;;;;;;;;;;12.40;99.90;;;;;;5056934;28;20392;-82
2021/08/17 00:18:50;;;;;;;;;;;12.40;99.90;;;;;;5057646;28;19908;-82
2021/08/17 00:21:16;;;;;;;;;;;12.40;99.90;;;;;;5057267;28;19908;-82
2021/08/17 00:23:41;;;;;;;;;;;12.30;99.90;;;;;;5057918;28;19952;-82
2021/08/17 00:26:07;;;;;;;;;;;12.40;99.90;;;;;;5057286;28;19911;-81
2021/08/17 00:28:33;;;;;;;;;;;12.40;99.90;;;;;;5058518;28;19905;-82
2021/08/17 00:30:58;;;;;;;;;;;12.40;99.90;;;;;;5042181;28;19932;-82
2021/08/17 00:33:24;;;;;;;;;;;12.40;99.90;;;;;;5058803;28;19916;-82
2021/08/17 00:35:50;;;;;;;;;;;12.40;99.90;;;;;;5057775;28;19911;-82
2021/08/17 00:38:16;;;;;;;;;;;12.40;99.90;;;;;;5056886;28;19983;-82
2021/08/17 00:40:41;;;;;;;;;;;12.40;99.90;;;;;;5059162;28;19967;-82
2021/08/17 00:43:08;;;;;;;;;;;12.40;99.90;;;;;;5058192;28;20468;-82
2021/08/17 00:45:34;;;;;;;;;;;12.40;99.90;;;;;;5057128;28;19908;-82
2021/08/17 00:47:59;;;;;;;;;;;12.50;99.90;;;;;;5057851;28;19912;-83
2021/08/17 00:50:29;;;;;;;;;;;12.50;99.90;;;;;;5057996;28;19905;-82
2021/08/17 00:52:55;;;;;;;;;;;12.50;99.90;;;;;;5057415;28;19905;-82
2021/08/17 00:55:21;;;;;;;;;;;12.50;99.90;;;;;;5058360;28;19904;-82
2021/08/17 00:57:47;;;;;;;;;;;12.50;99.90;;;;;;5057751;28;19905;-82
2021/08/17 01:00:12;;;;;;;;;;;12.50;99.90;;;;;;5057904;28;19912;-82
2021/08/17 01:02:38;;;;;;;;;;;12.60;99.90;;;;;;5057659;28;20354;-83
2021/08/17 01:05:05;;;;;;;;;;;12.60;99.90;;;;;;5058452;28;19909;-82
2021/08/17 01:07:31;;;;;;;;;;;12.60;99.90;;;;;;5058070;28;19995;-82
2021/08/17 01:09:56;;;;;;;;;;;12.60;99.90;;;;;;5057393;28;20446;-82
2021/08/17 01:12:21;;;;;;;;;;;12.60;99.90;;;;;;5057976;28;19908;-82
2021/08/17 01:14:47;;;;;;;;;;;12.60;99.90;;;;;;5058922;28;19942;-82
2021/08/17 01:17:14;;;;;;;;;;;12.70;99.90;;;;;;5057139;28;19995;-82
2021/08/17 01:19:39;;;;;;;;;;;12.70;99.90;;;;;;5057372;28;19948;-82
2021/08/17 01:22:05;;;;;;;;;;;12.70;99.90;;;;;;5058128;28;19916;-82
2021/08/17 01:24:30;;;;;;;;;;;12.70;99.90;;;;;;5059392;28;19904;-83
2021/08/17 01:26:56;;;;;;;;;;;12.60;99.90;;;;;;5058202;28;19959;-83
2021/08/17 01:29:23;;;;;;;;;;;12.70;99.90;;;;;;5058083;28;19909;-83
2021/08/17 01:31:49;;;;;;;;;;;12.70;99.90;;;;;;5057851;28;20147;-82
2021/08/17 01:34:15;;;;;;;;;;;12.80;99.90;;;;;;5058006;28;20262;-82
2021/08/17 01:36:40;;;;;;;;;;;12.80;99.90;;;;;;5058383;28;20393;-82
2021/08/17 01:39:06;;;;;;;;;;;12.80;99.90;;;;;;5057927;28;19919;-82
2021/08/17 01:41:32;;;;;;;;;;;12.90;99.90;;;;;;5059302;28;19952;-82
2021/08/17 01:43:57;;;;;;;;;;;12.90;99.90;;;;;;5057135;28;19931;-83
2021/08/17 01:46:23;;;;;;;;;;;12.90;99.90;;;;;;5057593;28;19909;-82
2021/08/17 01:48:48;;;;;;;;;;;12.90;99.90;;;;;;5057422;28;19909;-82
2021/08/17 01:51:14;;;;;;;;;;;12.90;99.90;;;;;;5056654;28;19904;-82
2021/08/17 01:53:40;;;;;;;;;;;12.90;99.90;;;;;;5057218;28;19911;-82
2021/08/17 01:56:10;;;;;;;;;;;12.90;99.90;;;;;;5056491;28;19919;-82
2021/08/17 01:58:35;;;;;;;;;;;12.90;99.90;;;;;;5057546;28;19999;-82
2021/08/17 02:01:02;;;;;;;;;;;12.80;99.90;;;;;;5056688;28;19948;-82
2021/08/17 02:03:28;;;;;;;;;;;12.90;99.90;;;;;;5056968;28;20342;-82
2021/08/17 02:05:53;;;;;;;;;;;12.90;99.90;;;;;;5057064;28;19913;-82
2021/08/17 02:08:18;;;;;;;;;;;12.80;99.90;;;;;;5056494;28;19951;-82
2021/08/17 02:10:44;;;;;;;;;;;12.90;99.90;;;;;;5059169;28;19916;-82
2021/08/17 02:13:10;;;;;;;;;;;12.90;99.90;;;;;;5057352;28;19944;-82
2021/08/17 02:15:35;;;;;;;;;;;12.90;99.90;;;;;;5058234;28;19916;-82
2021/08/17 02:18:01;;;;;;;;;;;12.80;99.90;;;;;;5057418;28;19905;-82
2021/08/17 02:20:26;;;;;;;;;;;12.80;99.90;;;;;;5059100;28;19905;-83
2021/08/17 02:22:52;;;;;;;;;;;12.80;99.90;;;;;;5056792;28;19978;-82
2021/08/17 02:25:17;;;;;;;;;;;12.80;99.90;;;;;;5056970;28;19905;-82
2021/08/17 02:27:43;;;;;;;;;;;12.70;99.90;;;;;;5058688;28;20394;-82
2021/08/17 02:30:08;;;;;;;;;;;12.70;99.90;;;;;;5061415;28;20384;-82
2021/08/17 02:32:34;;;;;;;;;;;12.70;99.90;;;;;;5061371;28;19916;-83
2021/08/17 02:35:00;;;;;;;;;;;12.70;99.90;;;;;;5062005;28;20188;-83
2021/08/17 02:37:25;;;;;;;;;;;12.70;99.90;;;;;;5061117;28;20011;-83
2021/08/17 02:39:51;;;;;;;;;;;12.70;99.90;;;;;;5062472;28;19904;-83
2021/08/17 02:42:16;;;;;;;;;;;12.80;99.90;;;;;;5061319;28;19953;-83
2021/08/17 02:44:42;;;;;;;;;;;12.80;99.90;;;;;;5061750;28;19904;-83
2021/08/17 02:47:07;;;;;;;;;;;12.80;99.90;;;;;;5061002;28;19911;-83
2021/08/17 02:49:33;;;;;;;;;;;12.80;99.90;;;;;;5063283;28;20121;-83
2021/08/17 02:52:05;;;;;;;;;;;12.80;99.90;;;;;;5061612;28;20025;-83
2021/08/17 02:54:32;;;;;;;;;;;12.90;99.90;;;;;;5061560;28;19911;-83
2021/08/17 02:56:57;;;;;;;;;;;12.80;99.90;;;;;;5060358;28;19912;-83
2021/08/17 02:59:23;;;;;;;;;;;12.80;99.90;;;;;;5061256;28;19908;-82
2021/08/17 03:01:48;;;;;;;;;;;12.80;99.90;;;;;;5061368;28;19915;-82
2021/08/17 03:04:14;;;;;;;;;;;12.70;99.90;;;;;;5060751;28;20419;-83
2021/08/17 03:06:39;;;;;;;;;;;12.60;99.90;;;;;;5058655;28;19948;-82
2021/08/17 03:09:05;;;;;;;;;;;12.60;99.90;;;;;;5056039;28;19995;-82
2021/08/17 03:11:31;;;;;;;;;;;12.60;99.90;;;;;;5057215;28;19905;-82
2021/08/17 03:13:57;;;;;;;;;;;12.60;99.90;;;;;;5055657;28;19911;-82
2021/08/17 03:16:23;;;;;;;;;;;12.70;99.90;;;;;;5056171;28;19928;-83
2021/08/17 03:18:49;;;;;;;;;;;12.60;99.90;;;;;;5056058;28;19927;-83
2021/08/17 03:21:14;;;;;;;;;;;12.50;99.90;;;;;;5056555;28;19909;-82
2021/08/17 03:23:40;;;;;;;;;;;12.50;99.90;;;;;;5057520;28;19936;-82
2021/08/17 03:26:06;;;;;;;;;;;12.50;99.90;;;;;;5059918;28;19905;-83
2021/08/17 03:28:31;;;;;;;;;;;12.40;99.90;;;;;;5061885;28;20282;-83
2021/08/17 03:30:57;;;;;;;;;;;12.40;99.90;;;;;;5060657;28;19904;-84
2021/08/17 03:33:23;;;;;;;;;;;12.40;99.90;;;;;;5061476;28;19911;-83
2021/08/17 03:35:48;;;;;;;;;;;12.40;99.90;;;;;;5061675;28;19904;-83
2021/08/17 03:38:14;;;;;;;;;;;12.40;99.90;;;;;;5061603;28;19955;-83
2021/08/17 03:40:40;;;;;;;;;;;12.40;99.90;;;;;;5060311;28;20368;-83
2021/08/17 03:43:05;;;;;;;;;;;12.40;99.90;;;;;;5061396;28;19909;-84
2021/08/17 03:45:31;;;;;;;;;;;12.40;99.90;;;;;;5060817;28;19904;-83
2021/08/17 03:47:56;;;;;;;;;;;12.40;99.90;;;;;;5060834;28;19909;-83
2021/08/17 03:50:22;;;;;;;;;;;12.40;99.90;;;;;;5060933;28;19909;-83
2021/08/17 03:52:48;;;;;;;;;;;12.40;99.90;;;;;;5060664;28;19905;-82
2021/08/17 03:55:13;;;;;;;;;;;12.40;99.90;;;;;;5062404;28;19980;-82
2021/08/17 03:57:39;;;;;;;;;;;12.40;99.90;;;;;;5061876;28;19905;-83
2021/08/17 04:00:06;;;;;;;;;;;12.40;99.90;;;;;;5061641;28;19917;-83
2021/08/17 04:02:32;;;;;;;;;;;12.30;99.90;;;;;;5061085;28;19909;-83
2021/08/17 04:04:57;;;;;;;;;;;12.20;99.90;;;;;;5062445;28;19936;-83
2021/08/17 04:07:23;;;;;;;;;;;12.20;99.90;;;;;;5061651;28;19908;-82
2021/08/17 04:09:48;;;;;;;;;;;12.10;99.90;;;;;;5059546;28;19905;-83
2021/08/17 04:12:14;;;;;;;;;;;12.10;99.90;;;;;;5058505;28;20358;-82
2021/08/17 04:14:39;;;;;;;;;;;12.20;99.90;;;;;;5057735;28;19904;-82
2021/08/17 04:17:05;;;;;;;;;;;12.20;99.90;;;;;;5058022;28;19962;-82
2021/08/17 04:19:31;;;;;;;;;;;12.20;99.90;;;;;;5057631;28;19995;-82
2021/08/17 04:21:56;;;;;;;;;;;12.20;99.90;;;;;;5057373;28;19905;-82
2021/08/17 04:24:22;;;;;;;;;;;12.20;99.90;;;;;;5057916;28;19915;-82
2021/08/17 04:26:47;;;;;;;;;;;12.30;99.90;;;;;;5058127;28;19905;-82
2021/08/17 04:29:13;;;;;;;;;;;12.30;99.90;;;;;;5058456;28;19911;-82
2021/08/17 04:31:38;;;;;;;;;;;12.40;99.90;;;;;;5058825;28;19909;-82
2021/08/17 04:34:04;;;;;;;;;;;12.30;99.90;;;;;;5059243;28;20316;-82
2021/08/17 04:36:29;;;;;;;;;;;12.40;99.90;;;;;;5059092;28;19924;-82
2021/08/17 04:38:55;;;;;;;;;;;12.40;99.90;;;;;;5059235;28;19904;-82
2021/08/17 04:41:20;;;;;;;;;;;12.50;99.90;;;;;;5059039;28;19904;-82
2021/08/17 04:43:46;;;;;;;;;;;12.50;99.90;;;;;;5059377;28;19909;-82
2021/08/17 04:46:12;;;;;;;;;;;12.50;99.90;;;;;;5059141;28;19904;-82
2021/08/17 04:48:37;;;;;;;;;;;12.50;99.90;;;;;;5058378;28;19911;-82
2021/08/17 04:51:03;;;;;;;;;;;12.50;99.90;;;;;;5058490;28;20137;-83
2021/08/17 04:53:29;;;;;;;;;;;12.50;99.90;;;;;;5058299;28;19916;-82
2021/08/17 04:55:54;;;;;;;;;;;12.50;99.90;;;;;;5059047;28;20003;-82
2021/08/17 04:58:20;;;;;;;;;;;12.50;99.90;;;;;;5058810;28;20408;-82
2021/08/17 05:00:47;;;;;;;;;;;12.50;99.90;;;;;;5058552;28;20247;-82
2021/08/17 05:03:13;;;;;;;;;;;12.60;99.90;;;;;;5059609;28;19909;-80
2021/08/17 05:05:39;;;;;;;;;;;12.60;99.90;;;;;;5058525;28;19931;-80
2021/08/17 05:08:11;;;;;;;;;;;12.60;99.90;;;;;;5058940;28;19958;-80
2021/08/17 05:10:38;;;;;;;;;;;12.60;99.90;;;;;;5058586;28;19912;-80
2021/08/17 05:13:04;;;;;;;;;;;12.60;99.90;;;;;;5058656;28;19915;-80
2021/08/17 05:15:30;;;;;;;;;;;12.70;99.90;;;;;;5059645;28;19920;-82
2021/08/17 05:17:56;;;;;;;;;;;12.70;99.90;;;;;;5058586;28;19909;-83
2021/08/17 05:20:22;;;;;;;;;;;12.70;99.90;;;;;;5058274;28;20178;-82
2021/08/17 05:22:48;;;;;;;;;;;12.70;99.90;;;;;;5058025;28;20324;-83
2021/08/17 05:25:13;;;;;;;;;;;12.70;99.90;;;;;;5058843;28;19908;-83
2021/08/17 05:27:39;;;;;;;;;;;12.70;99.90;;;;;;5041095;28;19909;-83
2021/08/17 05:30:05;;;;;;;;;;;12.80;99.90;;;;;;5057626;28;19905;-80
2021/08/17 05:32:31;;;;;;;;;;;12.80;99.90;;;;;;5058554;28;19915;-80
2021/08/17 05:34:56;;;;;;;;;;;12.80;99.90;;;;;;5058501;28;19905;-82
2021/08/17 05:37:22;;;;;;;;;;;12.80;99.90;;;;;;5058313;28;19935;-82
2021/08/17 05:39:47;;;;;;;;;;;12.90;99.90;;;;;;5057735;28;19912;-82
2021/08/17 05:42:13;;;;;;;;;;;12.90;99.90;;;;;;5057622;28;19913;-82
2021/08/17 05:44:42;;;;;;;;;;;13.00;99.90;;;;;;5058157;28;19940;-80
2021/08/17 05:47:09;;;;;;;;;;;13.00;99.90;;;;;;5059413;28;20333;-80
2021/08/17 05:49:36;;;;;;;;;;;13.10;99.90;;;;;;5059459;28;19908;-80
2021/08/17 05:52:06;;;;;;;;;;;13.00;99.90;;;;;;5058515;28;20262;-80
2021/08/17 05:54:31;;;;;;;;;;;13.00;99.90;;;;;;5059072;28;20272;-80
2021/08/17 05:56:58;;;;;;;;;;;13.00;99.90;;;;;;5058523;28;19962;-80
2021/08/17 05:59:25;;;;;;;;;;;13.00;99.90;;;;;;5059127;28;19909;-80
2021/08/17 06:01:52;;;;;;;;;;;13.10;99.90;;;;;;5057474;28;19908;-80
2021/08/17 06:04:17;;;;;;;;;;;13.20;99.90;;;;;;5057231;28;19909;-80
2021/08/17 06:06:43;;;;;;;;;;;13.30;99.90;;;;;;5058290;28;19958;-80
2021/08/17 06:09:08;;;;;;;;;;;13.20;99.90;;;;;;5058744;28;19912;-80
2021/08/17 06:11:34;;;;;;;;;;;13.30;99.90;;;;;;5059299;28;20375;-80
2021/08/17 06:13:59;;;;;;;;;;;13.30;99.90;;;;;;5058721;28;19913;-80
2021/08/17 06:16:25;;;;;;;;;;;13.30;99.90;;;;;;5057640;28;19924;-80
2021/08/17 06:18:50;;;;;;;;;;;13.40;99.90;;;;;;5058731;28;19905;-80
2021/08/17 06:21:16;;;;;;;;;;;13.50;99.90;;;;;;5056001;28;19912;-80
2021/08/17 06:23:41;;;;;;;;;;;13.70;99.90;;;;;;5054385;28;19919;-82
2021/08/17 06:26:07;;;;;;;;;;;13.80;99.90;;;;;;5053690;28;20251;-82
2021/08/17 06:28:32;;;;;;;;;;;13.90;99.90;;;;;;5053991;28;19909;-82
2021/08/17 06:30:58;;;;;;;;;;;13.90;99.90;;;;;;5055711;28;20442;-82
2021/08/17 06:33:23;;;;;;;;;;;13.80;99.90;;;;;;5054834;28;19908;-82
2021/08/17 06:35:49;;;;;;;;;;;13.80;99.90;;;;;;5056140;28;19954;-82
2021/08/17 06:38:14;;;;;;;;;;;13.90;99.90;;;;;;5054173;28;20374;-82
2021/08/17 06:40:40;;;;;;;;;;;14.00;99.90;;;;;;5054755;28;19912;-82
2021/08/17 06:43:05;;;;;;;;;;;14.10;99.90;;;;;;5054949;28;19913;-82
2021/08/17 06:45:31;;;;;;;;;;;14.30;99.90;;;;;;5055664;28;19904;-82
2021/08/17 06:47:57;;;;;;;;;;;14.40;99.90;;;;;;5055597;28;19951;-82
2021/08/17 06:50:23;;;;;;;;;;;14.40;99.90;;;;;;5055729;28;19963;-83
2021/08/17 06:52:48;;;;;;;;;;;14.50;99.90;;;;;;5054436;28;19904;-80
2021/08/17 06:55:14;;;;;;;;;;;14.50;99.90;;;;;;5056953;28;19908;-80
2021/08/17 06:57:40;;;;;;;;;;;14.60;99.90;;;;;;5056670;28;19905;-80
2021/08/17 07:00:07;;;;;;;;;;;14.50;99.90;;;;;;5056818;28;19905;-80
2021/08/17 07:02:33;;;;;;;;;;;14.60;99.90;;;;;;5055195;28;20423;-82
2021/08/17 07:04:58;;;;;;;;;;;14.60;99.90;;;;;;5047153;28;19952;-82
2021/08/17 07:07:24;;;;;;;;;;;14.50;99.90;;;;;;5048148;28;19908;-82
2021/08/17 07:09:49;;;;;;;;;;;14.60;99.90;;;;;;5057731;28;19904;-83
2021/08/17 07:12:15;;;;;;;;;;;14.70;99.90;;;;;;5055299;28;19970;-80
2021/08/17 07:14:40;;;;;;;;;;;14.80;99.90;;;;;;5047316;28;19927;-80
2021/08/17 07:17:06;;;;;;;;;;;14.80;99.90;;;;;;5060265;28;19916;-80
2021/08/17 07:19:31;;;;;;;;;;;14.70;99.90;;;;;;5049580;28;19905;-80
2021/08/17 07:21:57;;;;;;;;;;;14.80;99.90;;;;;;5059038;28;19908;-80
2021/08/17 07:24:23;;;;;;;;;;;15.00;99.90;;;;;;5059153;28;19909;-80
2021/08/17 07:26:49;;;;;;;;;;;15.20;99.90;;;;;;5058773;28;19956;-80
2021/08/17 07:29:14;;;;;;;;;;;15.10;99.90;;;;;;5060164;28;19916;-82
2021/08/17 07:31:40;;;;;;;;;;;15.30;99.90;;;;;;5059379;28;19904;-80
2021/08/17 07:34:06;;;;;;;;;;;15.60;99.90;;;;;;5058811;28;19916;-80
2021/08/17 07:36:33;;;;;;;;;;;15.70;99.90;;;;;;5053691;28;19979;-80
2021/08/17 07:38:59;;;;;;;;;;;15.90;99.90;;;;;;5057396;28;19909;-80
2021/08/17 07:41:25;;;;;;;;;;;16.60;99.90;;;;;;5059791;28;19915;-80
2021/08/17 07:43:51;;;;;;;;;;;16.80;99.90;;;;;;5058745;28;19997;-80
2021/08/17 07:46:16;;;;;;;;;;;16.50;99.90;;;;;;5060532;28;19905;-80
2021/08/17 07:48:42;;;;;;;;;;;16.20;99.90;;;;;;5058517;28;19958;-80
2021/08/17 07:51:07;;;;;;;;;;;16.10;99.90;;;;;;5059119;28;19905;-80
2021/08/17 07:53:33;;;;;;;;;;;16.10;99.90;;;;;;5058582;28;19904;-80
2021/08/17 07:55:58;;;;;;;;;;;16.20;99.90;;;;;;5058764;28;20289;-80
2021/08/17 07:58:24;;;;;;;;;;;16.20;99.90;;;;;;5058292;28;19916;-80
2021/08/17 08:00:49;;;;;;;;;;;16.10;99.90;;;;;;5056046;28;19915;-80
2021/08/17 08:03:15;;;;;;;;;;;15.80;99.90;;;;;;5051447;28;19913;-80
2021/08/17 08:05:41;;;;;;;;;;;15.90;99.90;;;;;;5072747;28;19912;-80
2021/08/17 08:08:06;;;;;;;;;;;15.70;99.90;;;;;;5058955;28;19915;-80
2021/08/17 08:10:32;;;;;;;;;;;15.90;99.90;;;;;;5049535;28;19909;-80
2021/08/17 08:12:57;;;;;;;;;;;16.00;99.90;;;;;;5058266;28;19951;-81
2021/08/17 08:15:23;;;;;;;;;;;16.10;99.90;;;;;;5060632;28;19915;-80
2021/08/17 08:17:49;;;;;;;;;;;16.00;99.90;;;;;;5057453;28;19925;-80
2021/08/17 08:20:14;;;;;;;;;;;15.90;99.90;;;;;;5074397;28;19915;-80
2021/08/17 08:22:40;;;;;;;;;;;16.00;99.90;;;;;;5075441;28;19920;-80
2021/08/17 08:25:06;;;;;;;;;;;16.00;99.90;;;;;;5073908;28;19915;-80
2021/08/17 08:27:33;;;;;;;;;;;15.90;99.90;;;;;;5058831;28;19935;-80
2021/08/17 08:29:58;;;;;;;;;;;16.00;99.90;;;;;;5057603;28;19909;-81
2021/08/17 08:32:24;;;;;;;;;;;16.40;99.90;;;;;;5059634;28;19915;-80
2021/08/17 08:34:49;;;;;;;;;;;16.50;99.90;;;;;;5057576;28;19913;-81
2021/08/17 08:37:15;;;;;;;;;;;16.80;99.90;;;;;;5057719;28;20395;-80
2021/08/17 08:39:40;;;;;;;;;;;16.90;99.90;;;;;;5057092;28;19909;-80
2021/08/17 08:42:06;;;;;;;;;;;17.00;99.90;;;;;;5057788;28;19916;-80
2021/08/17 08:44:32;;;;;;;;;;;16.70;99.90;;;;;;5057198;28;19905;-80
2021/08/17 08:46:58;;;;;;;;;;;16.70;99.90;;;;;;5043122;28;19905;-80
2021/08/17 08:49:24;;;;;;;;;;;16.80;99.90;;;;;;5045287;28;20262;-80
2021/08/17 08:51:49;;;;;;;;;;;16.80;99.90;;;;;;5050843;28;19916;-80
2021/08/17 08:54:15;;;;;;;;;;;16.80;99.90;;;;;;5057034;28;20365;-80
2021/08/17 08:56:40;;;;;;;;;;;17.10;99.90;;;;;;5057327;28;19978;-80
2021/08/17 08:59:06;;;;;;;;;;;17.00;99.90;;;;;;5059434;28;20361;-81
2021/08/17 09:01:31;;;;;;;;;;;17.10;99.90;;;;;;5056997;28;19920;-80
2021/08/17 09:03:57;;;;;;;;;;;17.50;99.90;;;;;;5053861;28;20274;-80
2021/08/17 09:06:23;;;;;;;;;;;17.70;99.90;;;;;;5036631;28;19919;-80
2021/08/17 09:09:09;;;;;;;;;;;17.70;99.90;;;;;;5036732;28;19905;-80
2021/08/17 09:11:36;;;;;;;;;;;17.60;99.90;;;;;;5046137;28;19917;-80
2021/08/17 09:14:14;;;;;;;;;;;17.80;99.90;;;;;;5048553;28;19908;-80
2021/08/17 09:16:39;;;;;;;;;;;17.90;99.90;;;;;;5045176;28;19920;-80
2021/08/17 09:19:20;;;;;;;;;;;18.00;99.90;;;;;;5055034;28;19913;-80
2021/08/17 09:21:46;;;;;;;;;;;17.90;99.90;;;;;;5035378;28;19971;-79
2021/08/17 09:24:32;;;;;;;;;;;17.80;99.90;;;;;;5037304;28;20377;-80
2021/08/17 09:26:59;;;;;;;;;;;17.60;99.90;;;;;;5035044;28;19905;-80
2021/08/17 09:29:36;;;;;;;;;;;17.50;99.90;;;;;;5036551;28;19909;-80
2021/08/17 09:32:21;;;;;;;;;;;17.10;99.90;;;;;;5042984;28;19912;-80
2021/08/17 09:34:48;;;;;;;;;;;17.00;99.90;;;;;;5053128;28;19950;-80
2021/08/17 09:37:14;;;;;;;;;;;16.90;99.90;;;;;;5039951;28;19905;-80
2021/08/17 09:39:44;;;;;;;;;;;16.70;99.90;;;;;;5035410;28;19913;-80
2021/08/17 09:42:09;;;;;;;;;;;16.50;99.90;;;;;;5036216;28;19905;-80
2021/08/17 09:44:35;;;;;;;;;;;16.30;99.90;;;;;;5034939;28;19916;-80
2021/08/17 09:47:01;;;;;;;;;;;16.30;99.90;;;;;;5035854;28;20362;-80
2021/08/17 09:49:27;;;;;;;;;;;16.20;99.90;;;;;;5038278;28;19964;-80
2021/08/17 09:51:53;;;;;;;;;;;16.20;99.90;;;;;;5035638;28;19912;-80
2021/08/17 09:54:20;;;;;;;;;;;16.20;99.90;;;;;;5036852;28;19905;-80
2021/08/17 09:56:56;;;;;;;;;;;16.40;99.90;;;;;;5042627;28;19927;-80
2021/08/17 09:59:23;;;;;;;;;;;16.40;99.90;;;;;;5047782;28;20354;-80
2021/08/17 10:01:49;;;;;;;;;;;16.50;99.90;;;;;;5037146;28;19905;-80
2021/08/17 10:04:15;;;;;;;;;;;16.40;99.90;;;;;;5036582;28;19962;-80
2021/08/17 10:06:42;;;;;;;;;;;16.40;99.90;;;;;;5036199;28;20354;-80
2021/08/17 10:09:08;;;;;;;;;;;16.30;99.90;;;;;;5051743;28;19932;-80
2021/08/17 10:11:34;;;;;;;;;;;16.30;99.90;;;;;;5054800;28;19904;-80
2021/08/17 10:14:00;;;;;;;;;;;16.30;99.90;;;;;;5039401;28;19909;-80
2021/08/17 10:16:25;;;;;;;;;;;16.30;99.90;;;;;;5050117;28;19923;-80
2021/08/17 10:18:51;;;;;;;;;;;16.20;99.90;;;;;;5057311;28;19912;-80
2021/08/17 10:21:18;;;;;;;;;;;16.10;99.90;;;;;;5057457;28;19905;-80
2021/08/17 10:23:44;;;;;;;;;;;16.00;99.90;;;;;;5058303;28;19909;-80
2021/08/17 10:26:26;;;;;;;;;;;16.00;99.90;;;;;;5057090;28;19905;-80
2021/08/17 10:28:52;;;;;;;;;;;15.80;99.90;;;;;;5056734;28;19905;-80
2021/08/17 10:31:18;;;;;;;;;;;15.80;99.90;;;;;;5055788;28;20301;-80
2021/08/17 10:34:03;;;;;;;;;;;15.60;99.90;;;;;;5057401;28;19905;-80
2021/08/17 10:36:41;;;;;;;;;;;15.50;99.90;;;;;;5063926;28;19972;-82
2021/08/17 10:39:16;;;;;;;;;;;15.30;99.90;;;;;;5062338;28;19966;-82
2021/08/17 10:41:42;;;;;;;;;;;15.20;99.90;;;;;;5067788;28;20438;-82
2021/08/17 10:44:09;;;;;;;;;;;15.20;99.90;;;;;;5069658;28;19932;-83
2021/08/17 10:46:39;;;;;;;;;;;15.20;99.90;;;;;;5069012;28;19940;-82
2021/08/17 10:49:22;;;;;;;;;;;15.30;99.90;;;;;;5065995;28;19975;-81
2021/08/17 10:51:49;;;;;;;;;;;15.30;99.90;;;;;;5065746;28;19904;-81
2021/08/17 10:54:15;;;;;;;;;;;15.30;99.90;;;;;;5050512;28;19915;-82
2021/08/17 10:56:40;;;;;;;;;;;15.40;99.90;;;;;;5062068;28;19908;-82
2021/08/17 10:59:06;;;;;;;;;;;15.40;99.90;;;;;;5071599;28;19905;-82
2021/08/17 11:01:32;;;;;;;;;;;15.50;99.90;;;;;;5071381;28;19955;-82
2021/08/17 11:04:09;;;;;;;;;;;15.50;99.90;;;;;;5071929;28;20298;-82
2021/08/17 11:06:48;;;;;;;;;;;15.60;99.90;;;;;;5072959;28;20392;-82
2021/08/17 11:09:28;;;;;;;;;;;15.50;99.90;;;;;;5073267;28;19924;-81
2021/08/17 11:11:55;;;;;;;;;;;15.60;99.90;;;;;;5059544;28;19905;-81
2021/08/17 11:14:21;;;;;;;;;;;15.60;99.90;;;;;;5054367;28;20221;-83
2021/08/17 11:16:52;;;;;;;;;;;15.50;99.90;;;;;;5052620;28;19952;-83
2021/08/17 11:19:19;;;;;;;;;;;15.40;99.90;;;;;;5053050;28;19927;-82
2021/08/17 11:21:46;;;;;;;;;;;15.40;99.90;;;;;;5053493;28;19935;-82
2021/08/17 11:24:16;;;;;;;;;;;15.50;99.90;;;;;;5049913;28;19920;-82
2021/08/17 11:26:43;;;;;;;;;;;15.60;99.90;;;;;;5051826;28;19905;-82
2021/08/17 11:29:13;;;;;;;;;;;15.80;99.90;;;;;;5054073;28;19976;-82
2021/08/17 11:31:46;;;;;;;;;;;16.00;99.90;;;;;;5057460;28;19913;-82
2021/08/17 11:34:41;;;;;;;;;;;16.20;99.90;;;;;;5052723;28;20382;-82
2021/08/17 11:37:09;;;;;;;;;;;16.30;99.90;;;;;;5035098;28;19928;-82
2021/08/17 11:39:41;;;;;;;;;;;16.20;99.90;;;;;;5041342;28;19940;-83
2021/08/17 11:42:08;;;;;;;;;;;16.20;99.90;;;;;;5045951;28;19928;-82
2021/08/17 11:44:33;;;;;;;;;;;16.00;99.90;;;;;;5048013;28;19909;-82
2021/08/17 11:47:06;;;;;;;;;;;15.80;99.90;;;;;;5048949;28;19933;-82
2021/08/17 11:49:32;;;;;;;;;;;15.80;99.90;;;;;;5048598;28;19905;-82
2021/08/17 11:51:57;;;;;;;;;;;15.80;99.90;;;;;;5046514;28;19909;-82
2021/08/17 11:54:23;;;;;;;;;;;15.90;99.90;;;;;;5046399;28;19905;-82
2021/08/17 11:56:54;;;;;;;;;;;15.90;99.90;;;;;;5046769;28;19937;-82
2021/08/17 11:59:19;;;;;;;;;;;16.00;99.90;;;;;;5041634;28;19905;-82
2021/08/17 12:01:55;;;;;;;;;;;16.00;99.90;;;;;;5041392;28;19912;-82
2021/08/17 12:04:21;;;;;;;;;;;16.10;99.90;;;;;;5024632;28;20473;-82
2021/08/17 12:07:04;;;;;;;;;;;16.20;99.90;;;;;;5041479;28;19913;-82
2021/08/17 12:09:33;;;;;;;;;;;16.40;99.90;;;;;;5041171;28;20322;-82
2021/08/17 12:11:59;;;;;;;;;;;16.30;99.90;;;;;;5040232;28;19912;-82
2021/08/17 12:14:25;;;;;;;;;;;16.20;99.90;;;;;;5040958;28;19909;-82
2021/08/17 12:16:54;;;;;;;;;;;16.10;99.90;;;;;;5041748;28;19917;-80
2021/08/17 12:19:19;;;;;;;;;;;15.90;99.90;;;;;;5041509;28;19909;-81
2021/08/17 12:21:45;;;;;;;;;;;15.80;99.90;;;;;;5040934;28;19963;-82
2021/08/17 12:24:20;;;;;;;;;;;15.80;99.90;;;;;;5038606;28;19909;-82
2021/08/17 12:26:58;;;;;;;;;;;15.80;99.90;;;;;;5039195;28;20365;-82
2021/08/17 12:29:24;;;;;;;;;;;15.70;99.90;;;;;;5037026;28;19905;-82
2021/08/17 12:31:51;;;;;;;;;;;15.60;99.90;;;;;;5042248;28;19905;-82
2021/08/17 12:34:17;;;;;;;;;;;15.60;99.90;;;;;;5044996;28;19905;-83
2021/08/17 12:36:48;;;;;;;;;;;15.60;99.90;;;;;;5041806;28;19959;-83
2021/08/17 12:39:20;;;;;;;;;;;15.70;99.90;;;;;;5038483;28;20354;-83
2021/08/17 12:41:48;;;;;;;;;;;15.90;99.90;;;;;;5038988;28;19940;-83
2021/08/17 12:44:18;;;;;;;;;;;15.90;99.90;;;;;;5037601;28;20308;-83
2021/08/17 12:46:56;;;;;;;;;;;15.80;99.90;;;;;;5036845;28;19995;-82
2021/08/17 12:49:22;;;;;;;;;;;15.90;99.90;;;;;;5037260;28;20358;-82
2021/08/17 12:51:48;;;;;;;;;;;15.70;99.90;;;;;;5038772;28;19905;-82
2021/08/17 12:54:13;;;;;;;;;;;15.50;99.90;;;;;;5043044;28;19905;-82
2021/08/17 12:56:39;;;;;;;;;;;15.50;99.90;;;;;;5038882;28;19912;-83
2021/08/17 12:59:05;;;;;;;;;;;15.50;99.90;;;;;;5036899;28;19909;-82
2021/08/17 13:01:30;;;;;;;;;;;15.60;99.90;;;;;;5042873;28;19905;-83
2021/08/17 13:03:56;;;;;;;;;;;15.50;99.90;;;;;;5045934;28;20370;-82
2021/08/17 13:06:22;;;;;;;;;;;15.60;99.90;;;;;;5045588;28;20278;-83
2021/08/17 13:08:47;;;;;;;;;;;15.60;99.90;;;;;;5045317;28;19916;-82
2021/08/17 13:11:13;;;;;;;;;;;15.70;99.90;;;;;;5042189;28;19920;-82
2021/08/17 13:13:38;;;;;;;;;;;15.60;99.90;;;;;;5042298;28;19940;-82
2021/08/17 13:16:04;;;;;;;;;;;15.70;99.90;;;;;;5043511;28;20237;-82
2021/08/17 13:18:29;;;;;;;;;;;15.70;99.90;;;;;;5042103;28;19909;-82
2021/08/17 13:20:56;;;;;;;;;;;15.70;99.90;;;;;;5045917;28;19912;-82
2021/08/17 13:23:22;;;;;;;;;;;15.60;99.90;;;;;;5038452;28;19962;-82
2021/08/17 13:25:47;;;;;;;;;;;15.60;99.90;;;;;;5038159;28;20366;-82
2021/08/17 13:28:13;;;;;;;;;;;15.50;99.90;;;;;;5020370;28;19909;-82
2021/08/17 13:30:38;;;;;;;;;;;15.60;99.90;;;;;;5036392;28;19912;-82
2021/08/17 13:33:04;;;;;;;;;;;15.60;99.90;;;;;;5036786;28;19905;-82
2021/08/17 13:35:34;;;;;;;;;;;15.70;99.90;;;;;;5035942;28;19905;-82
2021/08/17 13:38:00;;;;;;;;;;;15.80;99.90;;;;;;5035676;28;19912;-82
2021/08/17 13:40:25;;;;;;;;;;;15.90;99.90;;;;;;5035465;28;19905;-82
2021/08/17 13:42:51;;;;;;;;;;;15.90;99.90;;;;;;5018834;28;19912;-82
2021/08/17 13:45:17;;;;;;;;;;;15.90;99.90;;;;;;5035544;28;20266;-82
2021/08/17 13:47:42;;;;;;;;;;;16.10;99.90;;;;;;5037486;28;19905;-82
2021/08/17 13:50:08;;;;;;;;;;;16.10;99.90;;;;;;5036586;28;19905;-82
2021/08/17 13:52:33;;;;;;;;;;;16.10;99.90;;;;;;5036079;28;19905;-82
2021/08/17 13:54:59;;;;;;;;;;;16.10;99.90;;;;;;5036177;28;19948;-82
2021/08/17 13:57:24;;;;;;;;;;;16.20;99.90;;;;;;5036081;28;19931;-82
2021/08/17 13:59:50;;;;;;;;;;;16.10;99.90;;;;;;5037087;28;19912;-82
2021/08/17 14:02:15;;;;;;;;;;;15.90;99.90;;;;;;5036222;28;19916;-82
2021/08/17 14:04:41;;;;;;;;;;;15.80;99.90;;;;;;5034830;28;19931;-82
2021/08/17 14:07:07;;;;;;;;;;;15.60;99.90;;;;;;5035468;28;19911;-84
2021/08/17 14:09:33;;;;;;;;;;;15.50;99.90;;;;;;5035265;28;19990;-83
2021/08/17 14:11:59;;;;;;;;;;;15.30;99.90;;;;;;5035731;28;19908;-83
2021/08/17 14:14:24;;;;;;;;;;;15.20;99.90;;;;;;5035781;28;19913;-83